Time;durP1;ratioP1;P1;durP2;ratioP2;P2;SDS_P1;SDS_P2;PMS_P1;PMS_P2;Temp;Humidity;BMP_temperature;BMP_pressure;BME280_temperature;BME280_humidity;BME280_pressure;Samples;Min_cycle;Max_cycle;Signal;HPM_P1;HPM_P2
2023/12/17 00:00:19;;;;;;;6.82;5.50;;;;;;;;;;5038652;28;20045;-64
2023/12/17 00:02:45;;;;;;;10.85;4.85;;;;;;;;;;5041899;28;20034;-64
2023/12/17 00:05:11;;;;;;;8.95;6.07;;;;;;;;;;5040124;28;20059;-63
2023/12/17 00:07:37;;;;;;;5.47;4.20;;;;;;;;;;5042912;28;20421;-63
2023/12/17 00:10:03;;;;;;;6.10;4.47;;;;;;;;;;5044376;28;20041;-64
2023/12/17 00:12:29;;;;;;;7.20;5.35;;;;;;;;;;5042118;28;20048;-64
2023/12/17 00:14:55;;;;;;;7.43;5.28;;;;;;;;;;5042403;28;20033;-63
2023/12/17 00:17:21;;;;;;;7.45;5.03;;;;;;;;;;5042657;28;20090;-63
2023/12/17 00:19:47;;;;;;;6.78;4.70;;;;;;;;;;5038290;28;20045;-63
2023/12/17 00:22:13;;;;;;;5.85;5.22;;;;;;;;;;5041384;28;20111;-63
2023/12/17 00:24:39;;;;;;;16.20;5.50;;;;;;;;;;5042488;28;20029;-64
2023/12/17 00:27:05;;;;;;;9.73;5.75;;;;;;;;;;5039473;28;20048;-63
2023/12/17 00:29:31;;;;;;;10.70;5.00;;;;;;;;;;5041485;28;20709;-63
2023/12/17 00:31:57;;;;;;;6.10;4.80;;;;;;;;;;5041892;28;20036;-64
2023/12/17 00:34:23;;;;;;;6.97;4.88;;;;;;;;;;5041165;28;21030;-64
2023/12/17 00:36:49;;;;;;;5.40;4.90;;;;;;;;;;5041014;28;20049;-63
2023/12/17 00:39:15;;;;;;;6.18;4.00;;;;;;;;;;5041358;28;20049;-63
2023/12/17 00:41:41;;;;;;;5.55;4.82;;;;;;;;;;5017670;28;20049;-63
2023/12/17 00:44:07;;;;;;;4.63;4.07;;;;;;;;;;5039689;28;20051;-63
2023/12/17 00:46:33;;;;;;;5.78;5.18;;;;;;;;;;5040225;28;20033;-63
2023/12/17 00:48:59;;;;;;;5.25;4.35;;;;;;;;;;5043121;28;20049;-63
2023/12/17 00:51:25;;;;;;;6.13;4.40;;;;;;;;;;5043551;28;20049;-63
2023/12/17 00:53:51;;;;;;;6.32;4.03;;;;;;;;;;5042465;28;20053;-63
2023/12/17 00:56:17;;;;;;;5.95;4.15;;;;;;;;;;5044487;28;20039;-63
2023/12/17 00:58:43;;;;;;;5.10;4.28;;;;;;;;;;5044824;28;20095;-64
2023/12/17 01:01:09;;;;;;;5.75;4.43;;;;;;;;;;5044574;28;20052;-64
2023/12/17 01:03:35;;;;;;;8.10;5.00;;;;;;;;;;5043381;28;20271;-64
2023/12/17 01:06:01;;;;;;;8.35;4.75;;;;;;;;;;5045808;28;20634;-63
2023/12/17 01:08:27;;;;;;;7.03;4.13;;;;;;;;;;5042822;28;20131;-63
2023/12/17 01:10:53;;;;;;;7.38;4.78;;;;;;;;;;5042519;28;20123;-63
2023/12/17 01:13:19;;;;;;;7.22;4.63;;;;;;;;;;5040237;28;20445;-64
2023/12/17 01:15:45;;;;;;;5.30;4.50;;;;;;;;;;5042619;28;20033;-64
2023/12/17 01:18:11;;;;;;;7.82;4.75;;;;;;;;;;5041605;28;20386;-64
2023/12/17 01:20:37;;;;;;;6.15;4.35;;;;;;;;;;5044985;28;20112;-64
2023/12/17 01:23:03;;;;;;;7.93;5.20;;;;;;;;;;5044760;28;20045;-63
2023/12/17 01:25:29;;;;;;;7.45;4.63;;;;;;;;;;5043305;28;20110;-63
2023/12/17 01:27:55;;;;;;;5.35;3.83;;;;;;;;;;5042422;28;20041;-64
2023/12/17 01:30:21;;;;;;;6.22;4.25;;;;;;;;;;5043029;28;20492;-63
2023/12/17 01:32:47;;;;;;;9.15;4.72;;;;;;;;;;5043045;28;20039;-64
2023/12/17 01:35:13;;;;;;;6.40;4.57;;;;;;;;;;5044708;28;20040;-63
2023/12/17 01:37:39;;;;;;;8.63;5.03;;;;;;;;;;5042438;28;20056;-64
2023/12/17 01:40:05;;;;;;;8.32;4.47;;;;;;;;;;5043584;28;20772;-63
2023/12/17 01:42:31;;;;;;;6.50;3.80;;;;;;;;;;5042445;28;21115;-63
2023/12/17 01:44:57;;;;;;;4.30;3.63;;;;;;;;;;5041908;28;20037;-63
2023/12/17 01:47:23;;;;;;;7.78;4.90;;;;;;;;;;5038187;28;20056;-64
2023/12/17 01:49:49;;;;;;;4.32;3.55;;;;;;;;;;5039902;28;20053;-64
2023/12/17 01:52:15;;;;;;;5.47;4.18;;;;;;;;;;5041573;28;20080;-63
2023/12/17 01:54:41;;;;;;;5.05;4.10;;;;;;;;;;5042626;28;20052;-63
2023/12/17 01:57:07;;;;;;;7.32;4.50;;;;;;;;;;5043498;28;20138;-63
2023/12/17 01:59:35;;;;;;;5.00;3.47;;;;;;;;;;5039726;28;20520;-63
2023/12/17 02:02:02;;;;;;;7.30;4.05;;;;;;;;;;5043135;28;20069;-63
2023/12/17 02:04:29;;;;;;;4.50;3.65;;;;;;;;;;5040817;28;20047;-63
2023/12/17 02:06:55;;;;;;;5.43;4.03;;;;;;;;;;5041664;28;20580;-63
2023/12/17 02:09:21;;;;;;;7.30;4.00;;;;;;;;;;5042926;28;20033;-63
2023/12/17 02:11:47;;;;;;;4.78;4.10;;;;;;;;;;5040484;28;20067;-63
2023/12/17 02:14:13;;;;;;;4.25;3.40;;;;;;;;;;5042849;28;20052;-63
2023/12/17 02:16:39;;;;;;;8.15;4.45;;;;;;;;;;5039466;28;20175;-64
2023/12/17 02:19:05;;;;;;;7.90;4.15;;;;;;;;;;5040935;28;20155;-64
2023/12/17 02:21:31;;;;;;;5.32;3.97;;;;;;;;;;5041239;28;20056;-63
2023/12/17 02:23:57;;;;;;;5.60;4.03;;;;;;;;;;5040356;28;20045;-63
2023/12/17 02:26:23;;;;;;;9.63;4.63;;;;;;;;;;5040463;28;20041;-63
2023/12/17 02:28:49;;;;;;;4.43;3.63;;;;;;;;;;5042758;28;20385;-63
2023/12/17 02:31:15;;;;;;;5.88;4.07;;;;;;;;;;5043980;28;20053;-63
2023/12/17 02:33:41;;;;;;;6.10;4.03;;;;;;;;;;5041808;28;20051;-63
2023/12/17 02:36:07;;;;;;;6.30;3.80;;;;;;;;;;5041329;28;20515;-63
2023/12/17 02:38:33;;;;;;;5.80;4.13;;;;;;;;;;5043393;28;20090;-63
2023/12/17 02:40:59;;;;;;;9.73;4.55;;;;;;;;;;5041386;28;20033;-64
2023/12/17 02:43:25;;;;;;;6.43;3.95;;;;;;;;;;5042989;28;20048;-64
2023/12/17 02:45:51;;;;;;;3.95;3.38;;;;;;;;;;5041281;28;20530;-64
2023/12/17 02:48:17;;;;;;;4.43;3.70;;;;;;;;;;5040918;28;20060;-64
2023/12/17 02:50:43;;;;;;;5.60;4.07;;;;;;;;;;5042712;28;20037;-64
2023/12/17 02:53:09;;;;;;;8.25;3.30;;;;;;;;;;5042283;28;20182;-63
2023/12/17 02:55:35;;;;;;;8.38;3.55;;;;;;;;;;5039193;28;20548;-63
2023/12/17 02:58:04;;;;;;;5.18;3.90;;;;;;;;;;5041435;28;20047;-63
2023/12/17 03:00:30;;;;;;;6.78;4.03;;;;;;;;;;5038810;28;20041;-63
2023/12/17 03:02:56;;;;;;;7.70;3.75;;;;;;;;;;5039744;28;20075;-64
2023/12/17 03:05:22;;;;;;;6.65;3.75;;;;;;;;;;5042093;28;20146;-64
2023/12/17 03:07:48;;;;;;;7.53;3.97;;;;;;;;;;5040508;28;20736;-64
2023/12/17 03:10:14;;;;;;;9.40;3.95;;;;;;;;;;5040126;28;20037;-64
2023/12/17 03:12:40;;;;;;;5.05;3.40;;;;;;;;;;5041018;28;20044;-63
2023/12/17 03:15:06;;;;;;;15.18;4.22;;;;;;;;;;5039970;28;20048;-63
2023/12/17 03:17:35;;;;;;;8.32;3.80;;;;;;;;;;5040533;28;20546;-64
2023/12/17 03:20:01;;;;;;;9.10;3.63;;;;;;;;;;5042575;28;20045;-64
2023/12/17 03:22:27;;;;;;;7.25;4.47;;;;;;;;;;5039965;28;20086;-64
2023/12/17 03:24:53;;;;;;;3.78;3.38;;;;;;;;;;5040284;28;20043;-64
2023/12/17 03:27:19;;;;;;;4.22;3.83;;;;;;;;;;5040647;28;20049;-63
2023/12/17 03:29:45;;;;;;;5.50;4.32;;;;;;;;;;5037328;28;20073;-63
2023/12/17 03:32:11;;;;;;;6.47;3.92;;;;;;;;;;5042107;28;20041;-64
2023/12/17 03:34:37;;;;;;;6.72;3.80;;;;;;;;;;5041988;28;20662;-63
2023/12/17 03:37:03;;;;;;;7.38;4.10;;;;;;;;;;5042033;28;20037;-63
2023/12/17 03:39:29;;;;;;;7.45;4.35;;;;;;;;;;5040653;28;20686;-62
2023/12/17 03:41:55;;;;;;;6.50;3.78;;;;;;;;;;5040213;28;20033;-62
2023/12/17 03:44:21;;;;;;;6.68;4.45;;;;;;;;;;5042152;28;20118;-62
2023/12/17 03:46:47;;;;;;;6.45;3.67;;;;;;;;;;5042358;28;20076;-62
2023/12/17 03:49:13;;;;;;;5.32;3.45;;;;;;;;;;5042505;28;20578;-62
2023/12/17 03:51:39;;;;;;;7.32;4.53;;;;;;;;;;5036589;28;20095;-62
2023/12/17 03:54:04;;;;;;;5.68;3.42;;;;;;;;;;5040316;28;20801;-63
2023/12/17 03:56:30;;;;;;;8.27;4.78;;;;;;;;;;5041668;28;20037;-63
2023/12/17 03:58:56;;;;;;;4.80;3.67;;;;;;;;;;5040801;28;20424;-63
2023/12/17 04:01:23;;;;;;;4.80;4.32;;;;;;;;;;5041455;28;20040;-63
2023/12/17 04:03:49;;;;;;;4.32;3.88;;;;;;;;;;5041153;28;20043;-63
2023/12/17 04:06:15;;;;;;;9.50;5.25;;;;;;;;;;5041841;28;20691;-63
2023/12/17 04:08:41;;;;;;;5.05;4.43;;;;;;;;;;5041000;28;20110;-63
2023/12/17 04:11:07;;;;;;;6.85;4.60;;;;;;;;;;5041575;28;20044;-63
2023/12/17 04:13:33;;;;;;;7.45;4.93;;;;;;;;;;5039462;28;20029;-63
2023/12/17 04:15:59;;;;;;;5.72;4.28;;;;;;;;;;5038577;28;20037;-63
2023/12/17 04:18:25;;;;;;;6.93;4.53;;;;;;;;;;5039028;28;20784;-63
2023/12/17 04:20:51;;;;;;;8.57;4.82;;;;;;;;;;5040394;28;20049;-63
2023/12/17 04:23:17;;;;;;;5.97;4.55;;;;;;;;;;5044198;28;20041;-63
2023/12/17 04:25:43;;;;;;;5.47;4.20;;;;;;;;;;5045187;28;20099;-63
2023/12/17 04:28:09;;;;;;;8.13;4.53;;;;;;;;;;5042564;28;20132;-63
2023/12/17 04:30:35;;;;;;;12.13;5.20;;;;;;;;;;5045738;28;20672;-63
2023/12/17 04:33:01;;;;;;;8.75;5.15;;;;;;;;;;5043732;28;20041;-63
2023/12/17 04:35:27;;;;;;;9.73;5.50;;;;;;;;;;5044313;28;20037;-63
2023/12/17 04:37:53;;;;;;;6.90;4.50;;;;;;;;;;5044528;28;20660;-63
2023/12/17 04:40:19;;;;;;;6.82;5.00;;;;;;;;;;5042498;28;20045;-63
2023/12/17 04:42:45;;;;;;;6.57;5.05;;;;;;;;;;5043674;28;20033;-63
2023/12/17 04:45:11;;;;;;;7.93;5.63;;;;;;;;;;5045060;28;20465;-63
2023/12/17 04:47:37;;;;;;;7.03;4.88;;;;;;;;;;5045245;28;20057;-63
2023/12/17 04:50:03;;;;;;;6.63;4.93;;;;;;;;;;5045091;28;20513;-63
2023/12/17 04:52:29;;;;;;;7.70;5.40;;;;;;;;;;5042152;28;20051;-63
2023/12/17 04:54:55;;;;;;;7.63;5.03;;;;;;;;;;5045343;28;20484;-63
2023/12/17 04:57:21;;;;;;;8.02;5.82;;;;;;;;;;5044343;28;20044;-63
2023/12/17 04:59:47;;;;;;;7.55;5.82;;;;;;;;;;5043914;28;20496;-63
2023/12/17 05:02:13;;;;;;;7.20;5.60;;;;;;;;;;5044097;28;20133;-63
2023/12/17 05:04:39;;;;;;;9.80;5.25;;;;;;;;;;5044223;28;20579;-63
2023/12/17 05:07:05;;;;;;;10.55;5.47;;;;;;;;;;5045143;28;20122;-63
2023/12/17 05:09:31;;;;;;;7.30;5.40;;;;;;;;;;5044904;28;20076;-63
2023/12/17 05:11:57;;;;;;;8.27;5.65;;;;;;;;;;5042667;28;20045;-63
2023/12/17 05:14:23;;;;;;;8.90;5.18;;;;;;;;;;5044524;28;20732;-63
2023/12/17 05:16:49;;;;;;;8.40;5.10;;;;;;;;;;5043272;28;20045;-63
2023/12/17 05:19:15;;;;;;;12.68;6.43;;;;;;;;;;5042238;28;20076;-63
2023/12/17 05:21:41;;;;;;;8.80;5.82;;;;;;;;;;5041499;28;20039;-63
2023/12/17 05:24:07;;;;;;;10.02;6.07;;;;;;;;;;5042147;28;20059;-63
2023/12/17 05:26:33;;;;;;;11.40;6.47;;;;;;;;;;5043228;28;20045;-63
2023/12/17 05:28:59;;;;;;;9.52;6.72;;;;;;;;;;5043124;28;20156;-63
2023/12/17 05:31:25;;;;;;;7.90;5.82;;;;;;;;;;5044273;28;20487;-63
2023/12/17 05:33:51;;;;;;;12.18;5.93;;;;;;;;;;5041384;28;20088;-63
2023/12/17 05:36:17;;;;;;;11.73;5.68;;;;;;;;;;5043401;28;20525;-63
2023/12/17 05:38:45;;;;;;;6.88;5.28;;;;;;;;;;5044465;28;20048;-63
2023/12/17 05:41:11;;;;;;;8.45;5.63;;;;;;;;;;5042644;28;20052;-63
2023/12/17 05:43:37;;;;;;;11.00;6.60;;;;;;;;;;5043836;28;20508;-63
2023/12/17 05:46:03;;;;;;;12.18;7.75;;;;;;;;;;5044794;28;20114;-63
2023/12/17 05:48:29;;;;;;;12.60;6.63;;;;;;;;;;5042462;28;20095;-63
2023/12/17 05:50:55;;;;;;;8.52;5.90;;;;;;;;;;5043142;28;20578;-63
2023/12/17 05:53:21;;;;;;;7.88;6.45;;;;;;;;;;5041506;28;20119;-63
2023/12/17 05:55:47;;;;;;;10.55;7.20;;;;;;;;;;5041558;28;20068;-63
2023/12/17 05:58:13;;;;;;;8.27;6.70;;;;;;;;;;5075074;28;20032;-63
2023/12/17 06:00:39;;;;;;;11.60;6.88;;;;;;;;;;5043295;28;20044;-63
2023/12/17 06:03:05;;;;;;;11.50;7.07;;;;;;;;;;5044375;28;20045;-63
2023/12/17 06:05:31;;;;;;;8.30;6.32;;;;;;;;;;5038070;28;20390;-63
2023/12/17 06:07:57;;;;;;;9.98;7.35;;;;;;;;;;5075371;28;20052;-63
2023/12/17 06:10:23;;;;;;;10.38;6.22;;;;;;;;;;5041909;28;20048;-63
2023/12/17 06:12:49;;;;;;;8.98;6.45;;;;;;;;;;5040181;28;20041;-63
2023/12/17 06:15:15;;;;;;;10.82;6.47;;;;;;;;;;5042270;28;20043;-63
2023/12/17 06:17:42;;;;;;;9.13;6.28;;;;;;;;;;5041645;28;20050;-63
2023/12/17 06:20:08;;;;;;;8.85;6.32;;;;;;;;;;5040829;28;20041;-63
2023/12/17 06:22:34;;;;;;;9.52;6.20;;;;;;;;;;5041318;28;20059;-63
2023/12/17 06:25:00;;;;;;;8.88;5.75;;;;;;;;;;5043540;28;20603;-63
2023/12/17 06:27:26;;;;;;;7.90;6.50;;;;;;;;;;5043782;28;20137;-63
2023/12/17 06:29:54;;;;;;;12.38;6.93;;;;;;;;;;5039978;28;20076;-63
2023/12/17 06:32:20;;;;;;;10.82;6.38;;;;;;;;;;5041306;28;20131;-63
2023/12/17 06:34:46;;;;;;;14.23;7.50;;;;;;;;;;5043964;28;20226;-63
2023/12/17 06:37:12;;;;;;;11.90;7.53;;;;;;;;;;5040948;28;20128;-63
2023/12/17 06:39:42;;;;;;;10.48;7.03;;;;;;;;;;5039199;28;20515;-63
2023/12/17 06:42:11;;;;;;;7.20;6.50;;;;;;;;;;5040040;28;20053;-63
2023/12/17 06:44:37;;;;;;;11.05;6.78;;;;;;;;;;5040707;28;20045;-63
2023/12/17 06:47:04;;;;;;;11.30;7.30;;;;;;;;;;5040046;28;20139;-63
2023/12/17 06:49:31;;;;;;;11.15;7.97;;;;;;;;;;5043528;28;20515;-63
2023/12/17 06:51:57;;;;;;;10.55;8.07;;;;;;;;;;5042886;28;20314;-63
2023/12/17 06:54:23;;;;;;;12.50;8.07;;;;;;;;;;5043226;28;20040;-63
2023/12/17 06:56:49;;;;;;;11.35;7.28;;;;;;;;;;5043671;28;20396;-63
2023/12/17 06:59:15;;;;;;;11.95;7.30;;;;;;;;;;5040031;28;20075;-63
2023/12/17 07:01:41;;;;;;;9.63;7.28;;;;;;;;;;5041162;28;20048;-63
2023/12/17 07:04:07;;;;;;;13.07;7.50;;;;;;;;;;5042881;28;20041;-63
2023/12/17 07:06:33;;;;;;;15.23;7.75;;;;;;;;;;5042456;28;20116;-63
2023/12/17 07:08:59;;;;;;;12.88;7.68;;;;;;;;;;5040063;28;20052;-63
2023/12/17 07:11:25;;;;;;;12.85;8.20;;;;;;;;;;5042067;28;20744;-63
2023/12/17 07:13:51;;;;;;;8.75;7.80;;;;;;;;;;5040981;28;20046;-63
2023/12/17 07:16:23;;;;;;;12.27;8.18;;;;;;;;;;5040400;28;20052;-63
2023/12/17 07:18:49;;;;;;;;;;;;;;;;;;5042272;28;20556;-63
2023/12/17 07:21:16;;;;;;;13.63;9.40;;;;;;;;;;5039980;28;20003;-63
2023/12/17 07:23:42;;;;;;;12.57;9.05;;;;;;;;;;5039335;28;20047;-63
2023/12/17 07:26:08;;;;;;;14.18;8.93;;;;;;;;;;5041749;28;20068;-63
2023/12/17 07:28:34;;;;;;;10.80;9.15;;;;;;;;;;5040081;28;20037;-63
2023/12/17 07:31:00;;;;;;;14.23;9.07;;;;;;;;;;5037613;28;20516;-63
2023/12/17 07:33:26;;;;;;;13.55;9.73;;;;;;;;;;5040902;28;20723;-63
2023/12/17 07:35:52;;;;;;;17.20;9.30;;;;;;;;;;5039311;28;20029;-63
2023/12/17 07:38:20;;;;;;;12.45;9.25;;;;;;;;;;5041667;28;20044;-63
2023/12/17 07:40:46;;;;;;;16.30;9.77;;;;;;;;;;5041443;28;20476;-63
2023/12/17 07:43:12;;;;;;;16.02;10.13;;;;;;;;;;5039866;28;20579;-63
2023/12/17 07:45:38;;;;;;;13.52;8.52;;;;;;;;;;5039153;28;20037;-63
2023/12/17 07:48:04;;;;;;;13.35;8.52;;;;;;;;;;5042908;28;20144;-63
2023/12/17 07:50:30;;;;;;;13.35;9.38;;;;;;;;;;5041738;28;20037;-63
2023/12/17 07:52:56;;;;;;;16.73;9.75;;;;;;;;;;5042923;28;20043;-63
2023/12/17 07:55:22;;;;;;;15.23;9.35;;;;;;;;;;5042581;28;20041;-63
2023/12/17 07:57:48;;;;;;;14.98;9.30;;;;;;;;;;5042139;28;20049;-63
2023/12/17 08:00:15;;;;;;;11.18;8.63;;;;;;;;;;5044645;28;20400;-63
2023/12/17 08:02:41;;;;;;;15.30;8.75;;;;;;;;;;5045066;28;20048;-63
2023/12/17 08:05:08;;;;;;;11.90;7.68;;;;;;;;;;5043079;28;20045;-63
2023/12/17 08:07:34;;;;;;;10.98;7.30;;;;;;;;;;5045432;28;20043;-63
2023/12/17 08:10:00;;;;;;;12.18;7.93;;;;;;;;;;5046152;28;20048;-63
2023/12/17 08:12:26;;;;;;;13.27;7.97;;;;;;;;;;5044394;28;20408;-63
2023/12/17 08:14:52;;;;;;;9.85;7.95;;;;;;;;;;5042932;28;20807;-63
2023/12/17 08:17:18;;;;;;;13.63;7.88;;;;;;;;;;5043851;28;20077;-63
2023/12/17 08:19:44;;;;;;;11.93;7.40;;;;;;;;;;5045407;28;20649;-63
2023/12/17 08:22:10;;;;;;;9.15;7.28;;;;;;;;;;5045648;28;20037;-63
2023/12/17 08:24:36;;;;;;;11.15;7.93;;;;;;;;;;5043868;28;20044;-63
2023/12/17 08:27:03;;;;;;;10.55;7.68;;;;;;;;;;5045392;28;20400;-63
2023/12/17 08:29:32;;;;;;;12.63;7.53;;;;;;;;;;5045130;28;20037;-63
2023/12/17 08:31:58;;;;;;;9.20;6.20;;;;;;;;;;5041662;28;20111;-63
2023/12/17 08:34:24;;;;;;;10.25;6.88;;;;;;;;;;5044739;28;20705;-63
2023/12/17 08:36:51;;;;;;;8.57;6.70;;;;;;;;;;5044304;28;20044;-63
2023/12/17 08:39:17;;;;;;;7.65;6.13;;;;;;;;;;5045051;28;20377;-63
2023/12/17 08:41:43;;;;;;;14.75;7.03;;;;;;;;;;5045794;28;20094;-63
2023/12/17 08:44:09;;;;;;;9.25;6.30;;;;;;;;;;5045285;28;20076;-63
2023/12/17 08:46:35;;;;;;;7.93;6.75;;;;;;;;;;5039943;28;20735;-63
2023/12/17 08:49:03;;;;;;;13.25;7.55;;;;;;;;;;5042426;28;20040;-63
2023/12/17 08:51:29;;;;;;;11.65;7.38;;;;;;;;;;5044334;28;20047;-63
2023/12/17 08:53:55;;;;;;;13.75;7.78;;;;;;;;;;5041474;28;20819;-63
2023/12/17 08:56:21;;;;;;;13.77;7.20;;;;;;;;;;5043198;28;20064;-63
2023/12/17 08:58:47;;;;;;;14.05;9.02;;;;;;;;;;5041782;28;20037;-63
2023/12/17 09:01:13;;;;;;;10.32;8.27;;;;;;;;;;5040485;28;20045;-63
2023/12/17 09:03:39;;;;;;;14.90;10.38;;;;;;;;;;5045130;28;20518;-64
2023/12/17 09:06:05;;;;;;;12.27;8.68;;;;;;;;;;5043189;28;20049;-63
2023/12/17 09:08:31;;;;;;;13.77;9.60;;;;;;;;;;5041129;28;20072;-63
2023/12/17 09:10:57;;;;;;;15.32;10.27;;;;;;;;;;5042560;28;20037;-63
2023/12/17 09:13:23;;;;;;;15.77;10.55;;;;;;;;;;5044432;28;20699;-63
2023/12/17 09:15:49;;;;;;;20.58;10.35;;;;;;;;;;5042576;28;20070;-63
2023/12/17 09:18:15;;;;;;;21.70;10.63;;;;;;;;;;5037620;28;20542;-63
2023/12/17 09:20:41;;;;;;;17.92;10.93;;;;;;;;;;5043118;28;20141;-63
2023/12/17 09:23:07;;;;;;;16.60;9.38;;;;;;;;;;5043056;28;20381;-63
2023/12/17 09:25:33;;;;;;;17.13;10.27;;;;;;;;;;5041952;28;20043;-60
2023/12/17 09:27:59;;;;;;;21.23;9.85;;;;;;;;;;5041484;28;20044;-61
2023/12/17 09:30:25;;;;;;;15.82;9.63;;;;;;;;;;5042067;28;20062;-64
2023/12/17 09:32:51;;;;;;;17.90;9.73;;;;;;;;;;5040399;28;20049;-62
2023/12/17 09:35:19;;;;;;;14.73;9.27;;;;;;;;;;5037678;28;20405;-62
2023/12/17 09:37:46;;;;;;;15.25;8.73;;;;;;;;;;5034686;28;20046;-62
2023/12/17 09:40:12;;;;;;;15.80;9.15;;;;;;;;;;5036502;28;20541;-62
2023/12/17 09:42:40;;;;;;;16.90;8.57;;;;;;;;;;5041633;28;20090;-62
2023/12/17 09:45:07;;;;;;;21.95;7.72;;;;;;;;;;5039489;28;20123;-62
2023/12/17 09:47:33;;;;;;;12.48;6.78;;;;;;;;;;5037372;28;20059;-62
2023/12/17 09:49:59;;;;;;;17.65;6.97;;;;;;;;;;5034011;28;20069;-62
2023/12/17 09:52:26;;;;;;;16.67;7.53;;;;;;;;;;5037100;28;20114;-62
2023/12/17 09:54:52;;;;;;;18.25;7.93;;;;;;;;;;5040006;28;20029;-62
2023/12/17 09:57:18;;;;;;;16.17;7.88;;;;;;;;;;5038807;28;20059;-62
2023/12/17 09:59:45;;;;;;;11.95;7.10;;;;;;;;;;5034644;28;20124;-62
2023/12/17 10:02:17;;;;;;;18.95;7.18;;;;;;;;;;5045087;28;20056;-62
2023/12/17 10:04:43;;;;;;;11.43;6.35;;;;;;;;;;5040699;28;20041;-62
2023/12/17 10:07:09;;;;;;;17.00;7.78;;;;;;;;;;5046631;28;20123;-62
2023/12/17 10:09:35;;;;;;;17.33;7.22;;;;;;;;;;5046773;28;20037;-62
2023/12/17 10:12:02;;;;;;;17.15;7.28;;;;;;;;;;5045145;28;20084;-62
2023/12/17 10:14:30;;;;;;;13.63;6.78;;;;;;;;;;5046491;28;20124;-62
2023/12/17 10:16:56;;;;;;;14.10;7.18;;;;;;;;;;5045754;28;20041;-62
2023/12/17 10:19:22;;;;;;;13.68;7.22;;;;;;;;;;5045792;28;20060;-61
2023/12/17 10:21:48;;;;;;;21.27;9.30;;;;;;;;;;5043866;28;20110;-62
2023/12/17 10:24:15;;;;;;;22.73;10.43;;;;;;;;;;5042801;28;20626;-62
2023/12/17 10:26:44;;;;;;;16.02;10.85;;;;;;;;;;5044193;28;20047;-62
2023/12/17 10:29:14;;;;;;;17.92;11.68;;;;;;;;;;5036234;28;20081;-62
2023/12/17 10:31:43;;;;;;;21.25;11.43;;;;;;;;;;5041041;28;20111;-62
2023/12/17 10:34:18;;;;;;;22.95;11.98;;;;;;;;;;5041025;28;20045;-62
2023/12/17 10:36:48;;;;;;;17.02;11.90;;;;;;;;;;5034820;28;20056;-63
2023/12/17 10:39:14;;;;;;;21.48;13.45;;;;;;;;;;5034115;28;20079;-61
2023/12/17 10:41:41;;;;;;;25.65;14.30;;;;;;;;;;5041746;28;20041;-63
2023/12/17 10:44:14;;;;;;;23.05;14.40;;;;;;;;;;5040991;28;20040;-63
2023/12/17 10:46:44;;;;;;;20.67;13.88;;;;;;;;;;5043207;28;20037;-64
2023/12/17 10:49:11;;;;;;;19.48;13.50;;;;;;;;;;5031534;28;20806;-62
2023/12/17 10:51:38;;;;;;;20.42;12.60;;;;;;;;;;5036944;28;20046;-64
2023/12/17 10:54:06;;;;;;;24.75;13.95;;;;;;;;;;5042536;28;20094;-62
2023/12/17 10:56:34;;;;;;;27.38;14.55;;;;;;;;;;5037200;28;20042;-62
2023/12/17 10:59:01;;;;;;;23.40;12.85;;;;;;;;;;5041766;28;20481;-61
2023/12/17 11:01:28;;;;;;;22.77;13.30;;;;;;;;;;5036685;28;20087;-63
2023/12/17 11:03:54;;;;;;;21.58;14.13;;;;;;;;;;5042320;28;20041;-62
2023/12/17 11:06:20;;;;;;;24.02;14.23;;;;;;;;;;5043280;28;20127;-62
2023/12/17 11:08:46;;;;;;;24.67;15.77;;;;;;;;;;5039254;28;20080;-62
2023/12/17 11:11:12;;;;;;;24.70;14.82;;;;;;;;;;5040561;28;20056;-63
2023/12/17 11:13:39;;;;;;;23.42;15.13;;;;;;;;;;5037123;28;20034;-62
2023/12/17 11:16:21;;;;;;;25.35;16.20;;;;;;;;;;5036808;28;20103;-62
2023/12/17 11:18:48;;;;;;;23.30;17.20;;;;;;;;;;5039186;28;20049;-63
2023/12/17 11:21:14;;;;;;;27.55;16.88;;;;;;;;;;5033018;28;20057;-63
2023/12/17 11:23:40;;;;;;;19.70;15.35;;;;;;;;;;5034102;28;20123;-63
2023/12/17 11:26:07;;;;;;;22.75;15.10;;;;;;;;;;5038187;28;20136;-63
2023/12/17 11:28:33;;;;;;;24.00;15.48;;;;;;;;;;5042632;28;20461;-62
2023/12/17 11:30:59;;;;;;;22.88;15.23;;;;;;;;;;5036446;28;20041;-60
2023/12/17 11:33:26;;;;;;;24.55;15.98;;;;;;;;;;5038293;28;20517;-63
2023/12/17 11:35:52;;;;;;;21.85;15.93;;;;;;;;;;5037684;28;20046;-61
2023/12/17 11:38:20;;;;;;;28.77;16.80;;;;;;;;;;5043417;28;20036;-62
2023/12/17 11:40:46;;;;;;;22.73;16.15;;;;;;;;;;5042477;28;20175;-64
2023/12/17 11:43:12;;;;;;;18.35;15.05;;;;;;;;;;5040178;28;20162;-63
2023/12/17 11:45:43;;;;;;;17.58;15.40;;;;;;;;;;5041439;28;20052;-62
2023/12/17 11:48:10;;;;;;;20.05;14.35;;;;;;;;;;5036196;28;20884;-63
2023/12/17 11:50:48;;;;;;;19.98;13.93;;;;;;;;;;5042469;28;20044;-63
2023/12/17 11:53:15;;;;;;;18.38;14.68;;;;;;;;;;5039748;28;20064;-62
2023/12/17 11:55:42;;;;;;;18.00;13.75;;;;;;;;;;5040383;28;20040;-62
2023/12/17 11:58:08;;;;;;;17.58;12.63;;;;;;;;;;5037209;28;20665;-61
2023/12/17 12:00:34;;;;;;;21.50;14.07;;;;;;;;;;5040855;28;20037;-62
2023/12/17 12:03:00;;;;;;;21.13;13.57;;;;;;;;;;5040993;28;20079;-60
2023/12/17 12:05:26;;;;;;;19.90;13.48;;;;;;;;;;5036620;28;20140;-61
2023/12/17 12:07:57;;;;;;;14.32;12.02;;;;;;;;;;5039619;28;20044;-61
2023/12/17 12:10:23;;;;;;;20.52;13.73;;;;;;;;;;5037439;28;20041;-62
2023/12/17 12:13:05;;;;;;;15.25;12.88;;;;;;;;;;5041350;28;20051;-61
2023/12/17 12:15:31;;;;;;;15.23;12.93;;;;;;;;;;5037773;28;20044;-60
2023/12/17 12:17:57;;;;;;;20.50;14.20;;;;;;;;;;5042729;28;20119;-61
2023/12/17 12:20:34;;;;;;;18.60;13.50;;;;;;;;;;5044172;28;20036;-62
2023/12/17 12:23:00;;;;;;;18.63;13.50;;;;;;;;;;5040932;28;20040;-61
2023/12/17 12:25:27;;;;;;;19.15;13.60;;;;;;;;;;5037420;28;20088;-63
2023/12/17 12:27:53;;;;;;;20.02;14.02;;;;;;;;;;5047444;28;20033;-61
2023/12/17 12:30:26;;;;;;;16.40;12.80;;;;;;;;;;5041297;28;20048;-62
2023/12/17 12:32:52;;;;;;;20.17;14.38;;;;;;;;;;5040880;28;20356;-60
2023/12/17 12:35:23;;;;;;;16.75;14.02;;;;;;;;;;5043626;28;20087;-62
2023/12/17 12:37:49;;;;;;;17.48;13.63;;;;;;;;;;5041172;28;20098;-61
2023/12/17 12:40:15;;;;;;;17.38;14.48;;;;;;;;;;5043898;28;20044;-61
2023/12/17 12:42:41;;;;;;;19.73;14.35;;;;;;;;;;5042029;28;20045;-61
2023/12/17 12:45:10;;;;;;;20.70;15.13;;;;;;;;;;5047320;28;20064;-60
2023/12/17 12:47:36;;;;;;;20.25;14.10;;;;;;;;;;5046474;28;20422;-61
2023/12/17 12:50:02;;;;;;;18.95;14.20;;;;;;;;;;5047605;28;20433;-61
2023/12/17 12:52:28;;;;;;;21.48;15.48;;;;;;;;;;5047091;28;20037;-61
2023/12/17 12:54:54;;;;;;;20.80;14.90;;;;;;;;;;5044672;28;20049;-61
2023/12/17 12:57:22;;;;;;;17.60;14.88;;;;;;;;;;5043169;28;20293;-61
2023/12/17 12:59:48;;;;;;;23.35;14.82;;;;;;;;;;5044967;28;20448;-61
2023/12/17 13:02:14;;;;;;;22.75;15.13;;;;;;;;;;5043990;28;20049;-60
2023/12/17 13:04:41;;;;;;;21.77;14.38;;;;;;;;;;5041028;28;20103;-62
2023/12/17 13:07:07;;;;;;;21.73;15.65;;;;;;;;;;5046593;28;20049;-61
2023/12/17 13:09:34;;;;;;;19.63;14.65;;;;;;;;;;5040671;28;20045;-60
2023/12/17 13:12:00;;;;;;;21.58;14.15;;;;;;;;;;5043526;28;20413;-64
2023/12/17 13:14:26;;;;;;;19.05;15.13;;;;;;;;;;5045724;28;20048;-61
2023/12/17 13:16:52;;;;;;;18.52;15.30;;;;;;;;;;5045044;28;20472;-62
2023/12/17 13:19:18;;;;;;;23.05;15.55;;;;;;;;;;5043423;28;20090;-62
2023/12/17 13:21:44;;;;;;;20.50;15.52;;;;;;;;;;5034720;28;20033;-62
2023/12/17 13:24:10;;;;;;;23.63;15.45;;;;;;;;;;5046471;28;20411;-61
2023/12/17 13:26:39;;;;;;;21.02;16.23;;;;;;;;;;5048169;28;20056;-63
2023/12/17 13:29:05;;;;;;;23.02;15.15;;;;;;;;;;5046964;28;20049;-61
2023/12/17 13:31:31;;;;;;;22.92;16.92;;;;;;;;;;5047510;28;20044;-62
2023/12/17 13:33:57;;;;;;;22.63;16.95;;;;;;;;;;5046706;28;20059;-62
2023/12/17 13:36:23;;;;;;;21.00;17.02;;;;;;;;;;5047717;28;20645;-62
2023/12/17 13:38:49;;;;;;;22.23;16.80;;;;;;;;;;5042792;28;20131;-61
2023/12/17 13:41:15;;;;;;;23.00;17.15;;;;;;;;;;5039416;28;20052;-62
2023/12/17 13:43:41;;;;;;;19.23;15.70;;;;;;;;;;5047516;28;20505;-62
2023/12/17 13:46:07;;;;;;;25.35;16.65;;;;;;;;;;5048172;28;20044;-62
2023/12/17 13:48:33;;;;;;;17.42;15.48;;;;;;;;;;5046517;28;20068;-61
2023/12/17 13:51:00;;;;;;;18.95;14.50;;;;;;;;;;5047055;28;20498;-62
2023/12/17 13:53:26;;;;;;;18.30;15.40;;;;;;;;;;5047439;28;20045;-63
2023/12/17 13:55:52;;;;;;;18.40;15.10;;;;;;;;;;5047044;28;20032;-62
2023/12/17 13:58:18;;;;;;;20.40;15.30;;;;;;;;;;5047480;28;20509;-62
2023/12/17 14:00:44;;;;;;;20.15;14.60;;;;;;;;;;5037784;28;20048;-62
2023/12/17 14:03:10;;;;;;;19.25;15.68;;;;;;;;;;5041462;28;20055;-62
2023/12/17 14:05:36;;;;;;;21.00;14.82;;;;;;;;;;5046933;28;20724;-62
2023/12/17 14:08:02;;;;;;;23.45;15.75;;;;;;;;;;5047060;28;20036;-62
2023/12/17 14:10:28;;;;;;;20.48;16.90;;;;;;;;;;5045600;28;20052;-62
2023/12/17 14:12:55;;;;;;;19.80;14.65;;;;;;;;;;5040618;28;20400;-62
2023/12/17 14:15:22;;;;;;;18.48;14.27;;;;;;;;;;5037581;28;20393;-62
2023/12/17 14:17:49;;;;;;;18.75;14.85;;;;;;;;;;5035900;28;20622;-63
2023/12/17 14:20:15;;;;;;;19.02;14.25;;;;;;;;;;5047144;28;20036;-62
2023/12/17 14:22:41;;;;;;;15.35;12.05;;;;;;;;;;5043080;28;20029;-62
2023/12/17 14:25:08;;;;;;;17.35;14.35;;;;;;;;;;5040077;28;20076;-61